sensor_id;sensor_type;location;lat;lon;timestamp;P1;durP1;ratioP1;P2;durP2;ratioP2
51298;SDS011;37382;45.192;9.790;2023-11-22T05:10:59;27.52;;;21.52;;
51298;SDS011;37382;45.192;9.790;2023-11-22T05:13:26;30.70;;;21.90;;
51298;SDS011;37382;45.192;9.790;2023-11-22T05:15:53;34.85;;;24.98;;
51298;SDS011;37382;45.192;9.790;2023-11-22T05:18:21;45.45;;;29.27;;
51298;SDS011;37382;45.192;9.790;2023-11-22T05:20:48;62.08;;;36.20;;
51298;SDS011;37382;45.192;9.790;2023-11-22T05:23:16;41.20;;;27.88;;
51298;SDS011;37382;45.192;9.790;2023-11-22T05:25:43;35.70;;;24.63;;
51298;SDS011;37382;45.192;9.790;2023-11-22T05:28:11;32.50;;;23.95;;
51298;SDS011;37382;45.192;9.790;2023-11-22T05:30:39;35.80;;;25.63;;
51298;SDS011;37382;45.192;9.790;2023-11-22T05:33:06;27.10;;;19.63;;
51298;SDS011;37382;45.192;9.790;2023-11-22T05:35:34;35.92;;;24.27;;
51298;SDS011;37382;45.192;9.790;2023-11-22T05:38:01;35.90;;;24.40;;
51298;SDS011;37382;45.192;9.790;2023-11-22T05:40:29;37.90;;;22.92;;
51298;SDS011;37382;45.192;9.790;2023-11-22T05:42:56;34.53;;;24.55;;
51298;SDS011;37382;45.192;9.790;2023-11-22T05:45:24;34.10;;;22.35;;
51298;SDS011;37382;45.192;9.790;2023-11-22T05:47:52;30.45;;;18.92;;
51298;SDS011;37382;45.192;9.790;2023-11-22T05:50:20;28.83;;;19.63;;
51298;SDS011;37382;45.192;9.790;2023-11-22T05:52:47;32.65;;;21.15;;
51298;SDS011;37382;45.192;9.790;2023-11-22T05:55:15;32.70;;;20.20;;
51298;SDS011;37382;45.192;9.790;2023-11-22T05:57:42;30.88;;;22.05;;
51298;SDS011;37382;45.192;9.790;2023-11-22T06:00:10;52.17;;;25.23;;
51298;SDS011;37382;45.192;9.790;2023-11-22T06:02:37;37.67;;;22.90;;
51298;SDS011;37382;45.192;9.790;2023-11-22T06:05:06;30.45;;;22.58;;
51298;SDS011;37382;45.192;9.790;2023-11-22T06:07:34;33.33;;;23.98;;
51298;SDS011;37382;45.192;9.790;2023-11-22T06:10:01;37.45;;;24.05;;
51298;SDS011;37382;45.192;9.790;2023-11-22T06:12:29;34.20;;;21.85;;
51298;SDS011;37382;45.192;9.790;2023-11-22T06:14:57;38.30;;;23.88;;
51298;SDS011;37382;45.192;9.790;2023-11-22T06:17:24;40.10;;;26.17;;
51298;SDS011;37382;45.192;9.790;2023-11-22T06:19:52;35.95;;;24.20;;
51298;SDS011;37382;45.192;9.790;2023-11-22T06:22:19;37.25;;;24.95;;
51298;SDS011;37382;45.192;9.790;2023-11-22T06:24:47;62.70;;;24.48;;
51298;SDS011;37382;45.192;9.790;2023-11-22T06:27:15;70.18;;;30.27;;
51298;SDS011;37382;45.192;9.790;2023-11-22T06:29:43;60.67;;;26.95;;
51298;SDS011;37382;45.192;9.790;2023-11-22T06:32:11;52.22;;;26.83;;
51298;SDS011;37382;45.192;9.790;2023-11-22T06:34:39;53.10;;;27.63;;
51298;SDS011;37382;45.192;9.790;2023-11-22T06:37:06;84.35;;;30.15;;
51298;SDS011;37382;45.192;9.790;2023-11-22T06:39:35;66.07;;;34.55;;
51298;SDS011;37382;45.192;9.790;2023-11-22T06:42:04;54.90;;;28.05;;
51298;SDS011;37382;45.192;9.790;2023-11-22T06:44:32;55.45;;;33.47;;
51298;SDS011;37382;45.192;9.790;2023-11-22T06:46:59;45.35;;;30.52;;
51298;SDS011;37382;45.192;9.790;2023-11-22T06:49:26;53.00;;;30.80;;
51298;SDS011;37382;45.192;9.790;2023-11-22T06:51:54;54.78;;;34.90;;
51298;SDS011;37382;45.192;9.790;2023-11-22T06:54:21;59.80;;;38.00;;
51298;SDS011;37382;45.192;9.790;2023-11-22T06:56:49;50.05;;;32.45;;
51298;SDS011;37382;45.192;9.790;2023-11-22T06:59:18;76.07;;;35.83;;
51298;SDS011;37382;45.192;9.790;2023-11-22T07:01:46;38.35;;;24.75;;
51298;SDS011;37382;45.192;9.790;2023-11-22T07:04:13;33.83;;;26.45;;
51298;SDS011;37382;45.192;9.790;2023-11-22T07:06:41;40.67;;;29.25;;
51298;SDS011;37382;45.192;9.790;2023-11-22T07:09:10;29.63;;;22.48;;
51298;SDS011;37382;45.192;9.790;2023-11-22T07:11:39;32.85;;;23.52;;
51298;SDS011;37382;45.192;9.790;2023-11-22T07:14:06;37.60;;;24.10;;
51298;SDS011;37382;45.192;9.790;2023-11-22T07:16:34;34.42;;;23.50;;
51298;SDS011;37382;45.192;9.790;2023-11-22T07:19:01;31.92;;;24.15;;
51298;SDS011;37382;45.192;9.790;2023-11-22T07:21:30;41.08;;;30.50;;
51298;SDS011;37382;45.192;9.790;2023-11-22T07:23:58;36.70;;;27.88;;
51298;SDS011;37382;45.192;9.790;2023-11-22T07:26:26;36.28;;;26.55;;
51298;SDS011;37382;45.192;9.790;2023-11-22T07:28:54;37.35;;;25.38;;
51298;SDS011;37382;45.192;9.790;2023-11-22T07:31:21;32.58;;;24.92;;
51298;SDS011;37382;45.192;9.790;2023-11-22T07:33:49;35.85;;;24.60;;
51298;SDS011;37382;45.192;9.790;2023-11-22T07:36:17;29.80;;;23.77;;
51298;SDS011;37382;45.192;9.790;2023-11-22T07:38:44;30.48;;;22.33;;
51298;SDS011;37382;45.192;9.790;2023-11-22T07:41:12;45.35;;;24.08;;
51298;SDS011;37382;45.192;9.790;2023-11-22T07:43:39;35.25;;;22.98;;
51298;SDS011;37382;45.192;9.790;2023-11-22T07:46:07;59.65;;;24.38;;
51298;SDS011;37382;45.192;9.790;2023-11-22T07:48:42;52.20;;;22.75;;
51298;SDS011;37382;45.192;9.790;2023-11-22T07:51:09;38.65;;;24.95;;
51298;SDS011;37382;45.192;9.790;2023-11-22T07:53:37;42.45;;;23.75;;
51298;SDS011;37382;45.192;9.790;2023-11-22T07:56:06;26.65;;;21.10;;
51298;SDS011;37382;45.192;9.790;2023-11-22T07:58:35;32.40;;;21.90;;
51298;SDS011;37382;45.192;9.790;2023-11-22T08:01:03;25.15;;;22.33;;
51298;SDS011;37382;45.192;9.790;2023-11-22T08:03:33;30.33;;;22.80;;
51298;SDS011;37382;45.192;9.790;2023-11-22T08:06:02;35.45;;;23.35;;
51298;SDS011;37382;45.192;9.790;2023-11-22T08:08:30;28.88;;;24.38;;
51298;SDS011;37382;45.192;9.790;2023-11-22T08:10:57;37.17;;;26.20;;
51298;SDS011;37382;45.192;9.790;2023-11-22T08:13:25;34.20;;;24.83;;
51298;SDS011;37382;45.192;9.790;2023-11-22T08:15:52;34.03;;;25.23;;
51298;SDS011;37382;45.192;9.790;2023-11-22T08:18:20;37.83;;;25.88;;
51298;SDS011;37382;45.192;9.790;2023-11-22T08:20:49;30.95;;;24.02;;
51298;SDS011;37382;45.192;9.790;2023-11-22T08:23:16;31.02;;;24.25;;
51298;SDS011;37382;45.192;9.790;2023-11-22T08:25:45;36.10;;;24.52;;
51298;SDS011;37382;45.192;9.790;2023-11-22T08:28:12;50.35;;;30.83;;
51298;SDS011;37382;45.192;9.790;2023-11-22T08:30:40;54.08;;;36.30;;
51298;SDS011;37382;45.192;9.790;2023-11-22T08:33:08;48.33;;;31.38;;
51298;SDS011;37382;45.192;9.790;2023-11-22T08:35:36;34.72;;;25.67;;
51298;SDS011;37382;45.192;9.790;2023-11-22T08:38:03;37.85;;;27.45;;
51298;SDS011;37382;45.192;9.790;2023-11-22T08:40:32;34.22;;;25.83;;
51298;SDS011;37382;45.192;9.790;2023-11-22T08:42:59;36.13;;;25.83;;
51298;SDS011;37382;45.192;9.790;2023-11-22T08:45:27;41.15;;;27.48;;
51298;SDS011;37382;45.192;9.790;2023-11-22T08:47:56;38.83;;;27.60;;
51298;SDS011;37382;45.192;9.790;2023-11-22T08:50:24;59.95;;;41.90;;
51298;SDS011;37382;45.192;9.790;2023-11-22T08:52:52;39.17;;;25.95;;
51298;SDS011;37382;45.192;9.790;2023-11-22T08:55:25;38.40;;;26.52;;
51298;SDS011;37382;45.192;9.790;2023-11-22T08:57:53;36.08;;;26.17;;
51298;SDS011;37382;45.192;9.790;2023-11-22T09:00:20;41.88;;;28.40;;
51298;SDS011;37382;45.192;9.790;2023-11-22T09:02:51;39.05;;;26.73;;
51298;SDS011;37382;45.192;9.790;2023-11-22T09:05:19;36.85;;;27.17;;
51298;SDS011;37382;45.192;9.790;2023-11-22T09:07:48;45.53;;;27.58;;
51298;SDS011;37382;45.192;9.790;2023-11-22T09:10:15;35.88;;;25.60;;
51298;SDS011;37382;45.192;9.790;2023-11-22T09:12:45;38.00;;;25.65;;
51298;SDS011;37382;45.192;9.790;2023-11-22T09:15:15;36.17;;;26.17;;
51298;SDS011;37382;45.192;9.790;2023-11-22T09:17:44;49.63;;;28.38;;
51298;SDS011;37382;45.192;9.790;2023-11-22T09:20:15;51.42;;;30.83;;
51298;SDS011;37382;45.192;9.790;2023-11-22T09:25:18;41.92;;;25.92;;
51298;SDS011;37382;45.192;9.790;2023-11-22T09:27:48;46.58;;;29.40;;
51298;SDS011;37382;45.192;9.790;2023-11-22T09:30:19;47.78;;;28.92;;
51298;SDS011;37382;45.192;9.790;2023-11-22T09:35:32;49.67;;;29.00;;
51298;SDS011;37382;45.192;9.790;2023-11-22T09:38:01;48.80;;;28.88;;
51298;SDS011;37382;45.192;9.790;2023-11-22T09:40:30;44.50;;;28.60;;
51298;SDS011;37382;45.192;9.790;2023-11-22T09:43:01;44.20;;;28.13;;
51298;SDS011;37382;45.192;9.790;2023-11-22T09:45:29;41.00;;;26.00;;
51298;SDS011;37382;45.192;9.790;2023-11-22T09:47:58;37.03;;;23.73;;
51298;SDS011;37382;45.192;9.790;2023-11-22T09:50:35;31.98;;;23.10;;
51298;SDS011;37382;45.192;9.790;2023-11-22T09:53:12;33.90;;;22.85;;
51298;SDS011;37382;45.192;9.790;2023-11-22T09:55:46;34.17;;;22.15;;
51298;SDS011;37382;45.192;9.790;2023-11-22T09:58:14;37.80;;;23.55;;
51298;SDS011;37382;45.192;9.790;2023-11-22T10:00:44;36.28;;;23.42;;
51298;SDS011;37382;45.192;9.790;2023-11-22T10:03:12;31.45;;;22.00;;
51298;SDS011;37382;45.192;9.790;2023-11-22T10:05:42;35.03;;;20.63;;
51298;SDS011;37382;45.192;9.790;2023-11-22T10:08:09;31.20;;;19.77;;
51298;SDS011;37382;45.192;9.790;2023-11-22T10:10:37;26.67;;;19.00;;
51298;SDS011;37382;45.192;9.790;2023-11-22T10:13:05;30.98;;;19.33;;
51298;SDS011;37382;45.192;9.790;2023-11-22T10:15:32;28.70;;;18.13;;
51298;SDS011;37382;45.192;9.790;2023-11-22T10:18:00;30.38;;;18.75;;
51298;SDS011;37382;45.192;9.790;2023-11-22T10:20:37;29.95;;;19.77;;
51298;SDS011;37382;45.192;9.790;2023-11-22T10:23:10;29.08;;;19.27;;
51298;SDS011;37382;45.192;9.790;2023-11-22T10:25:45;26.60;;;18.90;;
51298;SDS011;37382;45.192;9.790;2023-11-22T10:28:18;29.88;;;19.30;;
51298;SDS011;37382;45.192;9.790;2023-11-22T10:30:48;26.85;;;17.08;;
51298;SDS011;37382;45.192;9.790;2023-11-22T10:33:17;28.95;;;17.15;;
51298;SDS011;37382;45.192;9.790;2023-11-22T10:35:51;32.90;;;17.45;;
51298;SDS011;37382;45.192;9.790;2023-11-22T10:38:20;33.15;;;18.55;;
51298;SDS011;37382;45.192;9.790;2023-11-22T10:40:48;32.05;;;17.40;;
51298;SDS011;37382;45.192;9.790;2023-11-22T10:43:18;27.30;;;18.58;;
51298;SDS011;37382;45.192;9.790;2023-11-22T10:45:47;26.58;;;17.27;;
51298;SDS011;37382;45.192;9.790;2023-11-22T10:48:18;30.27;;;17.80;;
51298;SDS011;37382;45.192;9.790;2023-11-22T10:50:48;26.23;;;17.42;;
51298;SDS011;37382;45.192;9.790;2023-11-22T10:53:20;25.08;;;15.95;;
51298;SDS011;37382;45.192;9.790;2023-11-22T10:55:53;24.02;;;15.57;;
51298;SDS011;37382;45.192;9.790;2023-11-22T10:58:26;24.23;;;15.80;;
51298;SDS011;37382;45.192;9.790;2023-11-22T11:00:55;26.15;;;14.82;;
51298;SDS011;37382;45.192;9.790;2023-11-22T11:03:23;17.17;;;13.55;;
51298;SDS011;37382;45.192;9.790;2023-11-22T11:05:58;19.20;;;13.60;;
51298;SDS011;37382;45.192;9.790;2023-11-22T11:08:31;19.85;;;13.10;;
51298;SDS011;37382;45.192;9.790;2023-11-22T11:11:01;19.25;;;13.07;;
51298;SDS011;37382;45.192;9.790;2023-11-22T11:13:30;33.58;;;14.25;;
51298;SDS011;37382;45.192;9.790;2023-11-22T11:15:58;29.23;;;14.88;;
51298;SDS011;37382;45.192;9.790;2023-11-22T11:18:26;23.85;;;13.43;;
51298;SDS011;37382;45.192;9.790;2023-11-22T11:20:58;32.53;;;14.93;;
51298;SDS011;37382;45.192;9.790;2023-11-22T11:23:29;27.67;;;14.15;;
51298;SDS011;37382;45.192;9.790;2023-11-22T11:25:59;22.17;;;13.85;;
51298;SDS011;37382;45.192;9.790;2023-11-22T11:28:43;19.60;;;11.13;;
51298;SDS011;37382;45.192;9.790;2023-11-22T11:31:21;20.20;;;10.73;;
51298;SDS011;37382;45.192;9.790;2023-11-22T11:36:25;19.67;;;12.18;;
51298;SDS011;37382;45.192;9.790;2023-11-22T11:39:02;17.10;;;11.48;;
51298;SDS011;37382;45.192;9.790;2023-11-22T11:41:38;19.92;;;11.18;;
51298;SDS011;37382;45.192;9.790;2023-11-22T11:44:07;15.60;;;10.45;;
51298;SDS011;37382;45.192;9.790;2023-11-22T11:46:36;14.57;;;7.10;;
51298;SDS011;37382;45.192;9.790;2023-11-22T11:49:09;11.63;;;8.43;;
51298;SDS011;37382;45.192;9.790;2023-11-22T11:51:41;10.88;;;6.00;;
51298;SDS011;37382;45.192;9.790;2023-11-22T11:54:12;11.30;;;7.05;;
51298;SDS011;37382;45.192;9.790;2023-11-22T11:56:43;12.73;;;7.80;;
51298;SDS011;37382;45.192;9.790;2023-11-22T11:59:11;34.85;;;9.43;;
51298;SDS011;37382;45.192;9.790;2023-11-22T12:01:39;12.02;;;7.25;;
51298;SDS011;37382;45.192;9.790;2023-11-22T12:04:06;11.90;;;7.47;;
51298;SDS011;37382;45.192;9.790;2023-11-22T12:06:33;12.45;;;8.20;;
51298;SDS011;37382;45.192;9.790;2023-11-22T12:09:04;14.00;;;7.72;;
51298;SDS011;37382;45.192;9.790;2023-11-22T12:11:31;16.02;;;7.13;;
51298;SDS011;37382;45.192;9.790;2023-11-22T12:13:58;16.67;;;6.05;;
51298;SDS011;37382;45.192;9.790;2023-11-22T12:16:26;9.13;;;6.35;;
51298;SDS011;37382;45.192;9.790;2023-11-22T12:18:54;14.50;;;8.15;;
51298;SDS011;37382;45.192;9.790;2023-11-22T12:21:23;22.15;;;11.20;;
51298;SDS011;37382;45.192;9.790;2023-11-22T12:23:51;10.57;;;5.88;;
51298;SDS011;37382;45.192;9.790;2023-11-22T12:26:19;16.15;;;6.47;;
51298;SDS011;37382;45.192;9.790;2023-11-22T12:28:48;33.85;;;23.23;;
51298;SDS011;37382;45.192;9.790;2023-11-22T12:31:31;11.80;;;7.30;;
51298;SDS011;37382;45.192;9.790;2023-11-22T12:34:04;12.30;;;7.50;;
51298;SDS011;37382;45.192;9.790;2023-11-22T12:36:34;8.80;;;6.30;;
51298;SDS011;37382;45.192;9.790;2023-11-22T12:39:06;12.57;;;7.03;;
51298;SDS011;37382;45.192;9.790;2023-11-22T12:41:35;16.48;;;8.93;;
51298;SDS011;37382;45.192;9.790;2023-11-22T12:44:04;11.18;;;6.68;;
51298;SDS011;37382;45.192;9.790;2023-11-22T12:46:48;9.73;;;6.47;;
51298;SDS011;37382;45.192;9.790;2023-11-22T12:49:28;14.55;;;10.05;;
51298;SDS011;37382;45.192;9.790;2023-11-22T12:51:56;13.70;;;8.88;;
51298;SDS011;37382;45.192;9.790;2023-11-22T12:54:26;23.48;;;9.88;;
51298;SDS011;37382;45.192;9.790;2023-11-22T12:56:53;15.13;;;8.15;;
51298;SDS011;37382;45.192;9.790;2023-11-22T12:59:26;11.80;;;5.25;;
51298;SDS011;37382;45.192;9.790;2023-11-22T13:04:28;8.52;;;5.15;;
51298;SDS011;37382;45.192;9.790;2023-11-22T13:06:58;9.68;;;7.40;;
51298;SDS011;37382;45.192;9.790;2023-11-22T13:09:27;9.35;;;5.88;;
51298;SDS011;37382;45.192;9.790;2023-11-22T13:11:56;11.23;;;6.38;;
51298;SDS011;37382;45.192;9.790;2023-11-22T13:14:23;7.38;;;6.43;;
51298;SDS011;37382;45.192;9.790;2023-11-22T13:16:52;7.18;;;4.82;;
51298;SDS011;37382;45.192;9.790;2023-11-22T13:19:22;10.07;;;5.28;;
51298;SDS011;37382;45.192;9.790;2023-11-22T13:21:51;8.27;;;5.13;;
51298;SDS011;37382;45.192;9.790;2023-11-22T13:24:19;10.18;;;5.13;;
51298;SDS011;37382;45.192;9.790;2023-11-22T13:26:47;11.10;;;5.20;;
51298;SDS011;37382;45.192;9.790;2023-11-22T13:29:15;8.45;;;5.38;;
51298;SDS011;37382;45.192;9.790;2023-11-22T13:31:43;8.07;;;5.82;;
51298;SDS011;37382;45.192;9.790;2023-11-22T13:34:10;7.75;;;5.15;;
51298;SDS011;37382;45.192;9.790;2023-11-22T13:36:38;9.40;;;5.80;;
51298;SDS011;37382;45.192;9.790;2023-11-22T13:39:06;9.70;;;6.15;;
51298;SDS011;37382;45.192;9.790;2023-11-22T13:41:34;9.38;;;6.68;;
51298;SDS011;37382;45.192;9.790;2023-11-22T13:44:01;9.70;;;6.13;;
51298;SDS011;37382;45.192;9.790;2023-11-22T13:46:29;7.82;;;5.95;;
51298;SDS011;37382;45.192;9.790;2023-11-22T13:48:57;11.57;;;6.95;;
51298;SDS011;37382;45.192;9.790;2023-11-22T13:51:25;9.93;;;6.20;;
51298;SDS011;37382;45.192;9.790;2023-11-22T13:53:52;11.75;;;7.38;;
51298;SDS011;37382;45.192;9.790;2023-11-22T13:56:20;12.75;;;7.75;;
51298;SDS011;37382;45.192;9.790;2023-11-22T13:58:49;23.10;;;18.05;;
51298;SDS011;37382;45.192;9.790;2023-11-22T14:01:16;16.55;;;12.82;;
51298;SDS011;37382;45.192;9.790;2023-11-22T14:03:49;11.23;;;6.72;;
51298;SDS011;37382;45.192;9.790;2023-11-22T14:06:16;8.90;;;5.80;;
51298;SDS011;37382;45.192;9.790;2023-11-22T14:08:44;9.32;;;6.45;;
51298;SDS011;37382;45.192;9.790;2023-11-22T14:11:12;12.95;;;7.55;;
51298;SDS011;37382;45.192;9.790;2023-11-22T14:13:40;11.75;;;6.72;;
51298;SDS011;37382;45.192;9.790;2023-11-22T14:16:07;14.77;;;6.50;;
51298;SDS011;37382;45.192;9.790;2023-11-22T14:18:36;14.07;;;6.13;;
51298;SDS011;37382;45.192;9.790;2023-11-22T14:21:03;9.23;;;5.88;;
51298;SDS011;37382;45.192;9.790;2023-11-22T14:23:31;13.27;;;6.35;;
51298;SDS011;37382;45.192;9.790;2023-11-22T14:26:00;17.67;;;6.97;;
51298;SDS011;37382;45.192;9.790;2023-11-22T14:28:29;12.55;;;6.53;;
51298;SDS011;37382;45.192;9.790;2023-11-22T14:30:57;7.47;;;4.95;;
51298;SDS011;37382;45.192;9.790;2023-11-22T14:33:25;15.15;;;5.50;;
51298;SDS011;37382;45.192;9.790;2023-11-22T14:35:52;13.85;;;5.32;;
51298;SDS011;37382;45.192;9.790;2023-11-22T14:38:20;12.63;;;5.25;;
51298;SDS011;37382;45.192;9.790;2023-11-22T14:40:48;11.70;;;5.75;;
51298;SDS011;37382;45.192;9.790;2023-11-22T14:43:16;26.73;;;5.57;;
51298;SDS011;37382;45.192;9.790;2023-11-22T14:45:43;21.73;;;5.40;;
51298;SDS011;37382;45.192;9.790;2023-11-22T14:48:12;11.27;;;5.80;;
51298;SDS011;37382;45.192;9.790;2023-11-22T14:50:43;11.63;;;5.68;;
51298;SDS011;37382;45.192;9.790;2023-11-22T14:53:10;10.48;;;5.88;;
51298;SDS011;37382;45.192;9.790;2023-11-22T14:55:38;202.77;;;110.47;;
51298;SDS011;37382;45.192;9.790;2023-11-22T14:58:08;48.40;;;29.15;;
51298;SDS011;37382;45.192;9.790;2023-11-22T15:00:35;26.92;;;12.15;;
51298;SDS011;37382;45.192;9.790;2023-11-22T15:03:04;21.08;;;10.10;;
51298;SDS011;37382;45.192;9.790;2023-11-22T15:05:32;18.10;;;9.20;;
51298;SDS011;37382;45.192;9.790;2023-11-22T15:08:00;30.80;;;12.10;;
51298;SDS011;37382;45.192;9.790;2023-11-22T15:10:27;18.25;;;11.73;;
51298;SDS011;37382;45.192;9.790;2023-11-22T15:12:55;34.15;;;15.63;;
51298;SDS011;37382;45.192;9.790;2023-11-22T15:15:24;25.58;;;13.38;;
51298;SDS011;37382;45.192;9.790;2023-11-22T15:17:53;28.45;;;12.02;;
51298;SDS011;37382;45.192;9.790;2023-11-22T15:20:21;20.33;;;10.55;;
51298;SDS011;37382;45.192;9.790;2023-11-22T15:22:48;12.80;;;8.50;;
51298;SDS011;37382;45.192;9.790;2023-11-22T15:25:17;15.48;;;8.68;;
51298;SDS011;37382;45.192;9.790;2023-11-22T15:27:45;15.43;;;10.02;;
51298;SDS011;37382;45.192;9.790;2023-11-22T15:30:13;20.05;;;9.98;;
51298;SDS011;37382;45.192;9.790;2023-11-22T15:32:40;17.77;;;10.60;;
51298;SDS011;37382;45.192;9.790;2023-11-22T15:35:08;17.60;;;11.35;;
51298;SDS011;37382;45.192;9.790;2023-11-22T15:37:36;22.85;;;12.82;;
51298;SDS011;37382;45.192;9.790;2023-11-22T15:40:04;18.02;;;12.32;;
51298;SDS011;37382;45.192;9.790;2023-11-22T15:42:35;16.55;;;10.55;;
51298;SDS011;37382;45.192;9.790;2023-11-22T15:45:02;22.70;;;12.70;;
51298;SDS011;37382;45.192;9.790;2023-11-22T15:47:30;15.32;;;10.40;;
51298;SDS011;37382;45.192;9.790;2023-11-22T15:49:58;26.00;;;12.32;;
51298;SDS011;37382;45.192;9.790;2023-11-22T15:52:25;17.88;;;10.95;;
51298;SDS011;37382;45.192;9.790;2023-11-22T15:54:55;15.50;;;10.40;;
51298;SDS011;37382;45.192;9.790;2023-11-22T15:57:23;17.48;;;11.50;;
51298;SDS011;37382;45.192;9.790;2023-11-22T15:59:50;20.33;;;10.90;;
51298;SDS011;37382;45.192;9.790;2023-11-22T16:02:17;16.73;;;10.93;;
51298;SDS011;37382;45.192;9.790;2023-11-22T16:04:45;21.65;;;10.90;;
51298;SDS011;37382;45.192;9.790;2023-11-22T16:07:13;29.13;;;13.80;;
51298;SDS011;37382;45.192;9.790;2023-11-22T16:09:40;25.88;;;13.50;;
51298;SDS011;37382;45.192;9.790;2023-11-22T16:12:10;27.05;;;15.10;;
51298;SDS011;37382;45.192;9.790;2023-11-22T16:14:46;32.90;;;14.88;;
51298;SDS011;37382;45.192;9.790;2023-11-22T16:17:15;33.70;;;15.32;;
51298;SDS011;37382;45.192;9.790;2023-11-22T16:19:48;29.02;;;17.45;;
51298;SDS011;37382;45.192;9.790;2023-11-22T16:22:16;29.02;;;18.48;;
51298;SDS011;37382;45.192;9.790;2023-11-22T16:24:44;28.40;;;16.48;;
51298;SDS011;37382;45.192;9.790;2023-11-22T16:27:13;31.15;;;15.75;;
51298;SDS011;37382;45.192;9.790;2023-11-22T16:29:40;26.38;;;15.90;;
51298;SDS011;37382;45.192;9.790;2023-11-22T16:32:08;35.38;;;15.80;;
51298;SDS011;37382;45.192;9.790;2023-11-22T16:34:35;27.48;;;17.17;;
51298;SDS011;37382;45.192;9.790;2023-11-22T16:37:02;29.63;;;16.98;;
51298;SDS011;37382;45.192;9.790;2023-11-22T16:39:30;35.78;;;19.98;;
51298;SDS011;37382;45.192;9.790;2023-11-22T16:41:58;35.25;;;20.73;;
51298;SDS011;37382;45.192;9.790;2023-11-22T16:44:25;28.65;;;17.95;;
51298;SDS011;37382;45.192;9.790;2023-11-22T16:46:53;45.60;;;26.65;;
51298;SDS011;37382;45.192;9.790;2023-11-22T16:49:20;39.28;;;25.70;;
51298;SDS011;37382;45.192;9.790;2023-11-22T16:51:48;52.85;;;33.92;;
51298;SDS011;37382;45.192;9.790;2023-11-22T16:54:15;60.70;;;39.17;;
51298;SDS011;37382;45.192;9.790;2023-11-22T16:56:44;66.55;;;38.85;;
51298;SDS011;37382;45.192;9.790;2023-11-22T16:59:12;76.75;;;50.95;;
51298;SDS011;37382;45.192;9.790;2023-11-22T17:01:39;63.10;;;41.45;;
51298;SDS011;37382;45.192;9.790;2023-11-22T17:04:07;53.88;;;37.83;;
51298;SDS011;37382;45.192;9.790;2023-11-22T17:06:35;51.15;;;31.50;;
51298;SDS011;37382;45.192;9.790;2023-11-22T17:09:03;50.13;;;31.52;;
51298;SDS011;37382;45.192;9.790;2023-11-22T17:11:32;43.15;;;30.25;;
51298;SDS011;37382;45.192;9.790;2023-11-22T17:13:59;49.42;;;31.55;;
51298;SDS011;37382;45.192;9.790;2023-11-22T17:16:27;49.28;;;28.33;;
51298;SDS011;37382;45.192;9.790;2023-11-22T17:18:57;50.38;;;25.35;;
51298;SDS011;37382;45.192;9.790;2023-11-22T17:21:25;61.40;;;24.52;;
51298;SDS011;37382;45.192;9.790;2023-11-22T17:23:52;42.42;;;22.90;;
51298;SDS011;37382;45.192;9.790;2023-11-22T17:26:20;51.17;;;23.30;;
51298;SDS011;37382;45.192;9.790;2023-11-22T17:28:47;47.00;;;23.80;;
51298;SDS011;37382;45.192;9.790;2023-11-22T17:31:15;63.72;;;25.65;;
51298;SDS011;37382;45.192;9.790;2023-11-22T17:33:42;50.08;;;24.52;;
51298;SDS011;37382;45.192;9.790;2023-11-22T17:36:11;60.33;;;29.92;;
51298;SDS011;37382;45.192;9.790;2023-11-22T17:38:40;48.90;;;27.48;;
51298;SDS011;37382;45.192;9.790;2023-11-22T17:41:08;51.53;;;28.50;;
51298;SDS011;37382;45.192;9.790;2023-11-22T17:43:36;44.70;;;29.40;;
51298;SDS011;37382;45.192;9.790;2023-11-22T17:46:04;59.88;;;33.35;;
51298;SDS011;37382;45.192;9.790;2023-11-22T17:48:35;62.50;;;35.90;;
51298;SDS011;37382;45.192;9.790;2023-11-22T17:51:04;61.00;;;36.47;;
51298;SDS011;37382;45.192;9.790;2023-11-22T17:53:32;74.05;;;33.90;;
51298;SDS011;37382;45.192;9.790;2023-11-22T17:56:00;56.28;;;31.15;;
51298;SDS011;37382;45.192;9.790;2023-11-22T17:58:30;64.93;;;30.67;;
51298;SDS011;37382;45.192;9.790;2023-11-22T18:00:58;58.28;;;30.25;;
51298;SDS011;37382;45.192;9.790;2023-11-22T18:03:26;46.35;;;23.23;;
51298;SDS011;37382;45.192;9.790;2023-11-22T18:05:53;32.50;;;14.32;;
51298;SDS011;37382;45.192;9.790;2023-11-22T18:08:21;26.05;;;11.23;;
51298;SDS011;37382;45.192;9.790;2023-11-22T18:10:49;33.95;;;12.32;;
51298;SDS011;37382;45.192;9.790;2023-11-22T18:13:17;36.63;;;16.70;;
51298;SDS011;37382;45.192;9.790;2023-11-22T18:15:44;46.72;;;20.30;;
51298;SDS011;37382;45.192;9.790;2023-11-22T18:18:12;62.88;;;29.90;;
51298;SDS011;37382;45.192;9.790;2023-11-22T18:20:39;46.92;;;21.23;;
51298;SDS011;37382;45.192;9.790;2023-11-22T18:23:12;98.68;;;46.15;;
51298;SDS011;37382;45.192;9.790;2023-11-22T18:25:39;57.42;;;28.58;;
51298;SDS011;37382;45.192;9.790;2023-11-22T18:28:07;29.95;;;16.30;;
51298;SDS011;37382;45.192;9.790;2023-11-22T18:30:38;27.93;;;12.50;;
51298;SDS011;37382;45.192;9.790;2023-11-22T18:33:08;42.05;;;16.67;;
51298;SDS011;37382;45.192;9.790;2023-11-22T18:35:39;30.42;;;12.02;;
51298;SDS011;37382;45.192;9.790;2023-11-22T18:38:07;27.45;;;12.30;;
51298;SDS011;37382;45.192;9.790;2023-11-22T18:40:35;34.65;;;12.50;;
51298;SDS011;37382;45.192;9.790;2023-11-22T18:43:03;63.88;;;36.63;;
51298;SDS011;37382;45.192;9.790;2023-11-22T18:45:33;143.02;;;83.57;;
51298;SDS011;37382;45.192;9.790;2023-11-22T18:48:00;81.82;;;47.83;;
51298;SDS011;37382;45.192;9.790;2023-11-22T18:50:28;97.30;;;51.60;;
51298;SDS011;37382;45.192;9.790;2023-11-22T18:52:55;89.05;;;47.55;;
51298;SDS011;37382;45.192;9.790;2023-11-22T18:55:23;98.30;;;50.10;;
51298;SDS011;37382;45.192;9.790;2023-11-22T18:57:50;92.47;;;47.65;;
51298;SDS011;37382;45.192;9.790;2023-11-22T19:00:18;61.50;;;36.13;;
51298;SDS011;37382;45.192;9.790;2023-11-22T19:02:47;60.60;;;30.77;;
51298;SDS011;37382;45.192;9.790;2023-11-22T19:05:14;37.00;;;19.65;;
51298;SDS011;37382;45.192;9.790;2023-11-22T19:07:43;29.98;;;17.27;;
51298;SDS011;37382;45.192;9.790;2023-11-22T19:10:15;29.13;;;17.00;;
51298;SDS011;37382;45.192;9.790;2023-11-22T19:12:42;34.60;;;17.95;;
51298;SDS011;37382;45.192;9.790;2023-11-22T19:15:10;39.13;;;21.15;;
51298;SDS011;37382;45.192;9.790;2023-11-22T19:17:38;43.42;;;22.58;;
51298;SDS011;37382;45.192;9.790;2023-11-22T19:20:06;38.05;;;19.90;;
51298;SDS011;37382;45.192;9.790;2023-11-22T19:22:37;41.30;;;19.83;;
51298;SDS011;37382;45.192;9.790;2023-11-22T19:25:08;33.35;;;17.60;;
51298;SDS011;37382;45.192;9.790;2023-11-22T19:27:38;48.65;;;24.38;;
51298;SDS011;37382;45.192;9.790;2023-11-22T19:30:06;64.68;;;32.42;;
51298;SDS011;37382;45.192;9.790;2023-11-22T19:32:33;69.47;;;37.65;;
51298;SDS011;37382;45.192;9.790;2023-11-22T19:35:02;55.70;;;27.15;;
51298;SDS011;37382;45.192;9.790;2023-11-22T19:37:30;32.47;;;19.85;;
51298;SDS011;37382;45.192;9.790;2023-11-22T19:39:59;36.38;;;16.30;;
51298;SDS011;37382;45.192;9.790;2023-11-22T19:42:26;29.15;;;17.67;;
51298;SDS011;37382;45.192;9.790;2023-11-22T19:44:53;26.98;;;17.02;;
51298;SDS011;37382;45.192;9.790;2023-11-22T19:47:23;28.10;;;15.35;;
51298;SDS011;37382;45.192;9.790;2023-11-22T19:49:51;44.58;;;19.77;;
51298;SDS011;37382;45.192;9.790;2023-11-22T19:52:19;35.88;;;21.40;;
51298;SDS011;37382;45.192;9.790;2023-11-22T19:54:46;56.10;;;31.67;;